createdAt,value
2018-07-23T00:02:19.988Z,3.20
2018-07-23T00:04:48.687Z,3.40
2018-07-23T00:07:17.362Z,3.40
2018-07-23T00:09:46.478Z,3.10
2018-07-23T00:12:15.141Z,3.62
2018-07-23T00:14:43.750Z,3.05
2018-07-23T00:17:12.463Z,3.08
2018-07-23T00:19:41.146Z,3.05
2018-07-23T00:22:09.831Z,3.02
2018-07-23T00:24:38.494Z,3.10
2018-07-23T00:27:06.826Z,3.20
2018-07-23T00:29:35.851Z,3.25
2018-07-23T00:32:04.608Z,3.12
2018-07-23T00:34:33.266Z,3.30
2018-07-23T00:37:01.937Z,3.42
2018-07-23T00:39:30.611Z,3.20
2018-07-23T00:41:58.960Z,3.65
2018-07-23T00:44:27.673Z,3.35
2018-07-23T00:46:56.356Z,3.40
2018-07-23T00:49:24.711Z,3.05
2018-07-23T00:51:52.996Z,3.40
2018-07-23T00:54:21.667Z,3.55
2018-07-23T00:56:50.289Z,3.15
2018-07-23T00:59:18.950Z,2.92
2018-07-23T01:01:47.744Z,3.08
2018-07-23T01:04:16.440Z,2.92
2018-07-23T01:06:45.325Z,3.08
2018-07-23T01:09:14.022Z,2.72
2018-07-23T01:11:42.706Z,2.95
2018-07-23T01:14:11.405Z,3.20
2018-07-23T01:16:40.137Z,2.77
2018-07-23T01:19:08.770Z,3.27
2018-07-23T01:21:37.512Z,2.83
2018-07-23T01:24:06.176Z,2.50
2018-07-23T01:26:34.866Z,3.10
2018-07-23T01:29:04.555Z,3.40
2018-07-23T01:31:33.233Z,2.80
2018-07-23T01:34:01.886Z,3.40
2018-07-23T01:36:30.609Z,3.12
2018-07-23T01:38:59.312Z,3.52
2018-07-23T01:41:27.610Z,3.70
2018-07-23T01:43:56.311Z,3.50
2018-07-23T01:46:25.002Z,3.20
2018-07-23T01:48:53.715Z,4.30
2018-07-23T01:51:22.404Z,3.70
2018-07-23T01:53:51.096Z,3.85
2018-07-23T01:56:19.753Z,4.00
2018-07-23T01:58:48.400Z,3.70
2018-07-23T02:01:17.598Z,3.80
2018-07-23T02:03:45.884Z,3.70
2018-07-23T02:06:14.169Z,3.90
2018-07-23T02:08:42.886Z,3.10
2018-07-23T02:11:11.597Z,3.60
2018-07-23T02:13:40.289Z,3.30
2018-07-23T02:16:08.998Z,3.60
2018-07-23T02:18:38.084Z,3.47
2018-07-23T02:21:07.052Z,3.95
2018-07-23T02:23:35.708Z,3.30
2018-07-23T02:26:04.432Z,4.13
2018-07-23T02:28:33.091Z,3.35
2018-07-23T02:31:01.862Z,3.90
2018-07-23T02:33:30.501Z,3.58
2018-07-23T02:35:59.164Z,4.25
2018-07-23T02:38:27.880Z,3.58
2018-07-23T02:40:58.683Z,4.20
2018-07-23T02:43:27.349Z,3.62
2018-07-23T02:45:56.016Z,3.83
2018-07-23T02:48:24.662Z,3.52
2018-07-23T02:50:53.288Z,3.53
2018-07-23T02:53:21.969Z,3.60
2018-07-23T02:55:50.637Z,3.47
2018-07-23T02:58:19.320Z,3.20
2018-07-23T03:00:48.145Z,3.17
2018-07-23T03:03:16.821Z,3.60
2018-07-23T03:05:45.496Z,3.98
2018-07-23T03:08:14.182Z,3.70
2018-07-23T03:10:42.812Z,3.95
2018-07-23T03:13:11.525Z,3.80
2018-07-23T03:15:40.191Z,4.70
2018-07-23T03:18:08.944Z,4.30
2018-07-23T03:20:37.945Z,4.40
2018-07-23T03:23:06.758Z,5.00
2018-07-23T03:25:35.486Z,5.30
2018-07-23T03:28:04.223Z,5.47
2018-07-23T03:30:32.841Z,5.17
2018-07-23T03:33:01.553Z,4.87
2018-07-23T03:35:30.232Z,4.47
2018-07-23T03:37:58.974Z,3.90
2018-07-23T03:40:27.754Z,4.30
2018-07-23T03:42:56.408Z,4.60
2018-07-23T03:45:25.116Z,5.17
2018-07-23T03:47:53.852Z,4.40
2018-07-23T03:50:22.557Z,4.80
2018-07-23T03:52:51.144Z,4.60
2018-07-23T03:55:19.854Z,4.67
2018-07-23T03:57:48.485Z,4.70
2018-07-23T04:00:17.185Z,4.10
2018-07-23T04:02:45.812Z,4.07
2018-07-23T04:05:14.445Z,4.10
2018-07-23T04:07:43.141Z,3.90
2018-07-23T04:10:11.910Z,4.70
2018-07-23T04:12:40.586Z,4.60
2018-07-23T04:15:09.234Z,4.40
2018-07-23T04:17:37.894Z,4.07
2018-07-23T04:20:06.639Z,4.10
2018-07-23T04:22:35.187Z,4.20
2018-07-23T04:25:03.563Z,4.70
2018-07-23T04:27:32.256Z,4.57
2018-07-23T04:30:01.148Z,4.27
2018-07-23T04:32:29.796Z,4.10
2018-07-23T04:34:58.462Z,4.20
2018-07-23T04:37:27.109Z,3.80
2018-07-23T04:39:55.705Z,4.23
2018-07-23T04:42:24.030Z,4.47
2018-07-23T04:44:52.709Z,3.90
2018-07-23T04:47:21.368Z,4.37
2018-07-23T04:49:50.108Z,5.03
2018-07-23T04:52:18.797Z,4.77
2018-07-23T04:54:47.482Z,4.37
2018-07-23T04:57:16.184Z,4.70
2018-07-23T04:59:44.892Z,4.73
2018-07-23T05:02:13.600Z,4.55
2018-07-23T05:04:43.210Z,4.73
2018-07-23T05:07:11.846Z,4.30
2018-07-23T05:09:40.542Z,4.63
2018-07-23T05:12:09.227Z,4.83
2018-07-23T05:14:37.890Z,5.15
2018-07-23T05:17:06.571Z,4.97
2018-07-23T05:19:35.233Z,5.20
2018-07-23T05:22:03.952Z,5.17
2018-07-23T05:24:32.701Z,5.30
2018-07-23T05:27:01.448Z,5.80
2018-07-23T05:29:30.140Z,5.73
2018-07-23T05:31:58.809Z,5.37
2018-07-23T05:34:27.471Z,6.07
2018-07-23T05:36:56.121Z,5.70
2018-07-23T05:39:24.385Z,4.60
2018-07-23T05:41:53.028Z,4.83
2018-07-23T05:44:21.692Z,5.17
2018-07-23T05:46:50.540Z,5.07
2018-07-23T05:49:19.208Z,4.37
2018-07-23T05:51:47.885Z,5.30
2018-07-23T05:54:16.670Z,4.50
2018-07-23T05:56:45.315Z,4.90
2018-07-23T05:59:13.624Z,5.78
2018-07-23T06:01:41.951Z,4.83
2018-07-23T06:04:10.637Z,4.90
2018-07-23T06:06:39.305Z,4.62
2018-07-23T06:09:09.173Z,4.53
2018-07-23T06:11:37.852Z,3.98
2018-07-23T06:14:06.655Z,4.10
2018-07-23T06:16:35.364Z,4.25
2018-07-23T06:19:04.449Z,3.87
2018-07-23T06:21:33.083Z,3.98
2018-07-23T06:24:01.753Z,4.10
2018-07-23T06:26:30.462Z,4.10
2018-07-23T06:28:59.297Z,3.70
2018-07-23T06:31:27.944Z,4.33
2018-07-23T06:33:56.689Z,4.28
2018-07-23T06:36:25.487Z,3.92
2018-07-23T06:38:54.191Z,3.87
2018-07-23T06:41:22.839Z,4.28
2018-07-23T06:43:51.542Z,3.85
2018-07-23T06:46:20.155Z,4.05
2018-07-23T06:48:48.928Z,3.60
2018-07-23T06:51:17.605Z,4.45
2018-07-23T06:53:46.320Z,4.42
2018-07-23T06:56:14.955Z,3.92
2018-07-23T06:58:43.663Z,4.65
2018-07-23T07:01:12.393Z,4.08
2018-07-23T07:03:41.070Z,4.05
2018-07-23T07:06:09.750Z,3.72
2018-07-23T07:08:38.786Z,4.83
2018-07-23T07:11:07.148Z,4.58
2018-07-23T07:13:35.806Z,4.17
2018-07-23T07:16:04.577Z,4.25
2018-07-23T07:18:33.244Z,3.80
2018-07-23T07:21:02.085Z,4.17
2018-07-23T07:23:30.726Z,3.33
2018-07-23T07:25:59.483Z,4.30
2018-07-23T07:28:28.201Z,4.90
2018-07-23T07:30:56.850Z,4.55
2018-07-23T07:33:25.496Z,3.87
2018-07-23T07:35:54.116Z,5.65
2018-07-23T07:38:22.786Z,4.92
2018-07-23T07:40:51.480Z,3.80
2018-07-23T07:43:20.167Z,4.70
2018-07-23T07:45:48.842Z,4.12
2018-07-23T07:48:17.173Z,3.85
2018-07-23T07:50:46.179Z,4.70
2018-07-23T07:53:14.854Z,4.45
2018-07-23T07:55:43.484Z,4.47
2018-07-23T07:58:12.158Z,4.28
2018-07-23T08:00:41.107Z,4.60
2018-07-23T08:03:09.775Z,5.30
2018-07-23T08:05:38.427Z,4.92
2018-07-23T08:08:07.103Z,4.67
2018-07-23T08:10:35.804Z,4.75
2018-07-23T08:13:04.445Z,4.35
2018-07-23T08:15:33.093Z,4.85
2018-07-23T08:18:09.360Z,4.22
2018-07-23T08:20:38.471Z,4.72
2018-07-23T08:23:06.812Z,6.15
2018-07-23T08:25:37.393Z,5.65
2018-07-23T08:28:06.081Z,5.90
2018-07-23T08:30:34.722Z,3.60
2018-07-23T08:33:03.485Z,4.50
2018-07-23T08:35:32.128Z,5.30
2018-07-23T08:38:00.839Z,5.20
2018-07-23T08:40:29.639Z,4.70
2018-07-23T08:42:58.358Z,5.25
2018-07-23T08:45:27.553Z,4.80
2018-07-23T08:47:57.064Z,5.90
2018-07-23T08:50:25.703Z,4.80
2018-07-23T08:52:53.971Z,4.37
2018-07-23T08:55:22.685Z,4.10
2018-07-23T08:57:51.317Z,4.80
2018-07-23T09:00:21.220Z,5.00
2018-07-23T09:02:50.333Z,4.22
2018-07-23T09:05:18.986Z,4.10
2018-07-23T09:07:47.640Z,4.00
2018-07-23T09:10:16.285Z,3.65
2018-07-23T09:12:44.986Z,4.58
2018-07-23T09:15:13.668Z,3.30
2018-07-23T09:17:43.100Z,4.53
2018-07-23T09:20:12.024Z,4.05
2018-07-23T09:22:40.660Z,4.17
2018-07-23T09:25:09.484Z,5.35
2018-07-23T09:27:37.774Z,4.72
2018-07-23T09:30:12.004Z,3.80
2018-07-23T09:32:40.709Z,5.78
2018-07-23T09:35:09.373Z,4.70
2018-07-23T09:37:37.701Z,4.05
2018-07-23T09:40:06.530Z,5.05
2018-07-23T09:42:35.349Z,3.25
2018-07-23T09:45:04.163Z,3.75
2018-07-23T09:47:32.866Z,3.40
2018-07-23T09:50:01.634Z,3.58
2018-07-23T09:52:31.199Z,3.95
2018-07-23T09:54:59.821Z,5.22
2018-07-23T09:57:28.082Z,4.37
2018-07-23T09:59:56.775Z,4.53
2018-07-23T10:02:25.416Z,5.35
2018-07-23T10:04:54.067Z,5.40
2018-07-23T10:07:22.768Z,5.45
2018-07-23T10:09:51.802Z,5.37
2018-07-23T10:12:22.368Z,5.97
2018-07-23T10:14:51.041Z,5.50
2018-07-23T10:18:22.252Z,4.83
2018-07-23T10:20:51.064Z,4.83
2018-07-23T10:23:19.782Z,4.30
2018-07-23T10:25:48.536Z,4.78
2018-07-23T10:28:17.262Z,5.00
2018-07-23T10:30:45.958Z,5.47
2018-07-23T10:33:14.611Z,4.85
2018-07-23T10:35:43.329Z,4.08
2018-07-23T10:38:12.007Z,3.70
2018-07-23T10:40:40.655Z,4.20
2018-07-23T10:43:09.486Z,4.95
2018-07-23T10:45:38.137Z,4.28
2018-07-23T10:48:07.490Z,3.42
2018-07-23T10:50:36.179Z,4.35
2018-07-23T10:53:04.924Z,4.60
2018-07-23T10:55:33.597Z,4.75
2018-07-23T10:58:02.323Z,4.33
2018-07-23T11:00:30.987Z,4.37
2018-07-23T11:02:59.636Z,3.65
2018-07-23T11:05:28.265Z,4.42
2018-07-23T11:07:56.911Z,4.20
2018-07-23T11:10:25.620Z,4.10
2018-07-23T11:12:54.348Z,3.98
2018-07-23T11:15:23.063Z,4.45
2018-07-23T11:17:51.733Z,3.72
2018-07-23T11:20:21.467Z,3.52
2018-07-23T11:22:50.195Z,3.70
2018-07-23T11:25:39.178Z,3.20
2018-07-23T11:27:47.828Z,3.40
2018-07-23T11:30:16.506Z,3.10
2018-07-23T11:32:45.229Z,3.60
2018-07-23T11:35:13.857Z,3.60
2018-07-23T11:37:42.515Z,3.35
2018-07-23T11:40:11.208Z,2.98
2018-07-23T11:42:39.918Z,2.90
2018-07-23T11:45:08.608Z,3.20
2018-07-23T11:47:37.349Z,2.80
2018-07-23T11:50:06.062Z,3.10
2018-07-23T11:52:34.647Z,2.95
2018-07-23T11:55:03.375Z,3.10
2018-07-23T11:57:31.996Z,3.10
2018-07-23T12:00:00.719Z,3.20
2018-07-23T12:02:29.424Z,4.15
2018-07-23T12:04:58.102Z,4.22
2018-07-23T12:07:26.838Z,3.90
2018-07-23T12:09:55.627Z,4.40
2018-07-23T12:12:24.012Z,4.53
2018-07-23T12:14:52.649Z,4.17
2018-07-23T12:17:21.371Z,4.50
2018-07-23T12:19:50.033Z,4.03
2018-07-23T12:22:18.339Z,4.35
2018-07-23T12:24:46.998Z,4.05
2018-07-23T12:27:15.670Z,4.22
2018-07-23T12:29:44.269Z,3.98
2018-07-23T12:32:12.959Z,3.65
2018-07-23T12:34:41.757Z,3.80
2018-07-23T12:37:10.613Z,3.87
2018-07-23T12:39:39.324Z,4.37
2018-07-23T12:42:08.017Z,3.98
2018-07-23T12:44:36.653Z,4.08
2018-07-23T12:47:05.736Z,4.15
2018-07-23T12:49:34.417Z,3.87
2018-07-23T12:52:03.066Z,3.72
2018-07-23T12:54:31.704Z,3.15
2018-07-23T12:57:00.364Z,3.77
2018-07-23T12:59:29.103Z,4.12
2018-07-23T13:01:57.827Z,4.10
2018-07-23T13:04:26.503Z,3.60
2018-07-23T13:06:55.227Z,3.98
2018-07-23T13:09:23.977Z,4.05
2018-07-23T13:11:52.776Z,3.75
2018-07-23T13:14:21.433Z,4.17
2018-07-23T13:16:49.710Z,4.30
2018-07-23T13:19:18.404Z,3.47
2018-07-23T13:21:47.046Z,3.90
2018-07-23T13:24:15.763Z,3.37
2018-07-23T13:26:44.533Z,3.52
2018-07-23T13:29:13.221Z,3.33
2018-07-23T13:31:41.924Z,3.87
2018-07-23T13:34:10.583Z,3.35
2018-07-23T13:36:38.860Z,3.47
2018-07-23T13:39:09.784Z,3.20
2018-07-23T13:41:38.465Z,3.35
2018-07-23T13:44:07.166Z,3.02
2018-07-23T13:46:35.962Z,3.15
2018-07-23T13:49:04.992Z,3.02
2018-07-23T13:51:33.815Z,3.10
2018-07-23T13:54:02.503Z,3.08
2018-07-23T13:56:31.200Z,3.30
2018-07-23T13:59:00.458Z,3.60
2018-07-23T14:01:29.136Z,3.22
2018-07-23T14:03:57.847Z,2.50
2018-07-23T14:06:26.534Z,3.30
2018-07-23T14:08:55.237Z,3.12
2018-07-23T14:11:23.957Z,3.12
2018-07-23T14:13:52.670Z,2.47
2018-07-23T14:16:21.350Z,2.70
2018-07-23T14:18:50.055Z,2.27
2018-07-23T14:21:18.750Z,2.83
2018-07-23T14:23:47.456Z,2.67
2018-07-23T14:26:16.172Z,2.70
2018-07-23T14:28:44.966Z,2.70
2018-07-23T14:31:13.705Z,2.80
2018-07-23T14:33:42.411Z,2.70
2018-07-23T14:36:11.140Z,2.67
2018-07-23T14:38:39.760Z,2.65
2018-07-23T14:41:08.463Z,2.72
2018-07-23T14:43:37.833Z,2.52
2018-07-23T14:46:06.568Z,2.45
2018-07-23T14:48:35.814Z,2.70
2018-07-23T14:51:04.469Z,2.30
2018-07-23T14:53:33.190Z,2.70
2018-07-23T14:56:01.812Z,2.50
2018-07-23T14:58:30.586Z,2.87
2018-07-23T15:00:59.261Z,2.60
2018-07-23T15:03:27.952Z,2.35
2018-07-23T15:05:56.912Z,2.40
2018-07-23T15:08:31.957Z,2.12
2018-07-23T15:11:00.625Z,2.35
2018-07-23T15:13:29.337Z,2.55
2018-07-23T15:15:58.095Z,2.55
2018-07-23T15:18:26.809Z,2.50
2018-07-23T15:20:55.542Z,2.60
2018-07-23T15:23:24.164Z,2.58
2018-07-23T15:25:52.931Z,2.27
2018-07-23T15:28:21.616Z,2.60
2018-07-23T15:30:50.296Z,2.35
2018-07-23T15:33:19.038Z,2.20
2018-07-23T15:35:47.338Z,2.02
2018-07-23T15:38:16.076Z,2.20
2018-07-23T15:40:44.709Z,2.22
2018-07-23T15:43:13.419Z,1.98
2018-07-23T15:45:42.270Z,2.20
2018-07-23T15:48:10.854Z,2.60
2018-07-23T15:50:39.544Z,2.40
2018-07-23T15:53:08.290Z,2.98
2018-07-23T15:55:36.978Z,2.47
2018-07-23T15:58:06.206Z,2.33
2018-07-23T16:00:34.889Z,2.90
2018-07-23T16:03:03.555Z,2.47
2018-07-23T16:05:32.275Z,2.27
2018-07-23T16:08:01.009Z,2.87
2018-07-23T16:10:29.706Z,2.62
2018-07-23T16:12:58.353Z,2.80
2018-07-23T16:15:27.021Z,2.90
2018-07-23T16:17:55.312Z,2.42
2018-07-23T16:20:23.569Z,2.87
2018-07-23T16:22:52.245Z,2.98
2018-07-23T16:25:21.805Z,2.70
2018-07-23T16:27:50.428Z,2.70
2018-07-23T16:30:19.070Z,2.50
2018-07-23T16:32:47.778Z,2.45
2018-07-23T16:35:16.428Z,2.50
2018-07-23T16:37:45.143Z,2.80
2018-07-23T16:40:13.835Z,2.45
2018-07-23T16:42:42.914Z,2.50
2018-07-23T16:45:11.681Z,2.87
2018-07-23T16:47:40.332Z,2.77
2018-07-23T16:50:08.699Z,3.00
2018-07-23T16:52:37.498Z,2.90
2018-07-23T16:55:06.195Z,2.45
2018-07-23T16:57:34.879Z,2.58
2018-07-23T17:00:04.373Z,2.60
2018-07-23T17:02:33.033Z,2.75
2018-07-23T17:05:01.759Z,2.92
2018-07-23T17:07:30.537Z,3.00
2018-07-23T17:09:59.262Z,2.50
2018-07-23T17:12:27.883Z,2.55
2018-07-23T17:14:56.520Z,2.95
2018-07-23T17:17:25.220Z,2.85
2018-07-23T17:19:53.887Z,2.42
2018-07-23T17:22:22.544Z,2.90
2018-07-23T17:24:51.204Z,2.70
2018-07-23T17:27:19.898Z,3.12
2018-07-23T17:29:48.627Z,3.20
2018-07-23T17:32:17.337Z,2.58
2018-07-23T17:34:46.041Z,2.80
2018-07-23T17:37:14.769Z,2.67
2018-07-23T17:39:43.498Z,2.83
2018-07-23T17:42:12.178Z,2.83
2018-07-23T17:44:40.833Z,2.70
2018-07-23T17:47:09.463Z,3.27
2018-07-23T17:49:38.130Z,3.15
2018-07-23T17:52:06.836Z,2.72
2018-07-23T17:54:35.522Z,2.60
2018-07-23T17:57:04.185Z,2.40
2018-07-23T17:59:32.483Z,2.83
2018-07-23T18:02:01.489Z,2.58
2018-07-23T18:04:29.808Z,2.55
2018-07-23T18:06:58.426Z,2.70
2018-07-23T18:09:27.165Z,2.70
2018-07-23T18:11:55.855Z,2.58
2018-07-23T18:14:24.534Z,2.52
2018-07-23T18:16:53.221Z,2.70
2018-07-23T18:19:21.858Z,2.52
2018-07-23T18:21:50.549Z,2.72
2018-07-23T18:24:19.251Z,2.62
2018-07-23T18:26:47.906Z,2.95
2018-07-23T18:29:16.860Z,2.80
2018-07-23T18:31:46.996Z,2.70
2018-07-23T18:34:17.590Z,2.58
2018-07-23T18:36:46.280Z,2.67
2018-07-23T18:39:14.920Z,2.92
2018-07-23T18:41:43.626Z,2.70
2018-07-23T18:44:12.267Z,2.70
2018-07-23T18:46:40.933Z,2.58
2018-07-23T18:49:26.655Z,2.50
2018-07-23T18:51:55.819Z,3.02
2018-07-23T18:54:26.088Z,2.70
2018-07-23T18:56:55.974Z,3.10
2018-07-23T18:59:24.636Z,2.95
2018-07-23T19:01:54.273Z,3.52
2018-07-23T19:04:23.035Z,2.95
2018-07-23T19:06:51.891Z,2.58
2018-07-23T19:09:21.769Z,3.33
2018-07-23T19:11:51.573Z,3.00
2018-07-23T19:14:20.406Z,2.95
2018-07-23T19:16:50.155Z,3.10
2018-07-23T19:19:18.858Z,3.80
2018-07-23T19:21:47.494Z,3.33
2018-07-23T19:24:16.145Z,3.20
2018-07-23T19:26:44.850Z,2.98
2018-07-23T19:29:13.562Z,3.70
2018-07-23T19:31:41.885Z,3.60
2018-07-23T19:34:10.215Z,3.58
2018-07-23T19:36:38.896Z,3.65
2018-07-23T19:39:09.043Z,3.90
2018-07-23T19:41:38.050Z,3.80
2018-07-23T19:44:07.076Z,3.40
2018-07-23T19:46:35.732Z,3.42
2018-07-23T19:49:04.550Z,3.50
2018-07-23T19:51:33.240Z,3.70
2018-07-23T19:54:01.539Z,3.47
2018-07-23T19:56:30.186Z,3.02
2018-07-23T19:58:58.845Z,3.80
2018-07-23T20:01:27.521Z,3.35
2018-07-23T20:03:56.193Z,3.12
2018-07-23T20:06:26.062Z,3.35
2018-07-23T20:08:55.606Z,3.35
2018-07-23T20:11:25.102Z,3.12
2018-07-23T20:13:53.812Z,3.20
2018-07-23T20:16:22.606Z,3.15
2018-07-23T20:19:05.554Z,3.02
2018-07-23T20:21:34.224Z,3.27
2018-07-23T20:24:02.969Z,3.02
2018-07-23T20:26:31.687Z,3.25
2018-07-23T20:29:00.396Z,2.80
2018-07-23T20:31:29.062Z,2.83
2018-07-23T20:33:57.806Z,3.27
2018-07-23T20:36:26.493Z,3.33
2018-07-23T20:38:55.249Z,3.50
2018-07-23T20:41:23.914Z,3.35
2018-07-23T20:43:52.600Z,3.12
2018-07-23T20:46:21.219Z,3.10
2018-07-23T20:48:49.907Z,3.42
2018-07-23T20:51:18.608Z,3.15
2018-07-23T20:53:47.339Z,3.60
2018-07-23T20:56:16.073Z,3.12
2018-07-23T20:58:44.756Z,3.33
2018-07-23T21:01:13.412Z,3.33
2018-07-23T21:03:42.132Z,3.25
2018-07-23T21:06:10.811Z,3.65
2018-07-23T21:08:39.439Z,3.30
2018-07-23T21:11:08.332Z,3.27
2018-07-23T21:13:37.001Z,3.30
2018-07-23T21:16:05.681Z,3.30
2018-07-23T21:18:34.351Z,3.50
2018-07-23T21:21:03.063Z,3.02
2018-07-23T21:23:31.720Z,3.67
2018-07-23T21:26:00.417Z,3.58
2018-07-23T21:28:29.126Z,3.42
2018-07-23T21:30:57.941Z,3.50
2018-07-23T21:33:26.784Z,3.37
2018-07-23T21:35:55.431Z,3.50
2018-07-23T21:38:24.116Z,3.67
2018-07-23T21:40:52.784Z,3.55
2018-07-23T21:43:21.519Z,3.95
2018-07-23T21:45:50.173Z,4.12
2018-07-23T21:48:18.781Z,3.83
2018-07-23T21:50:47.595Z,3.52
2018-07-23T21:53:16.259Z,3.50
2018-07-23T21:55:44.896Z,3.35
2018-07-23T21:58:13.583Z,3.87
2018-07-23T22:00:42.334Z,3.83
2018-07-23T22:03:11.012Z,3.70
2018-07-23T22:05:39.664Z,3.70
2018-07-23T22:08:08.418Z,3.37
2018-07-23T22:10:37.092Z,3.62
2018-07-23T22:13:05.845Z,3.80
2018-07-23T22:15:34.546Z,3.70
2018-07-23T22:18:03.286Z,3.67
2018-07-23T22:20:32.123Z,3.77
2018-07-23T22:23:00.999Z,3.92
2018-07-23T22:25:29.648Z,3.95
2018-07-23T22:27:58.309Z,3.98
2018-07-23T22:30:27.039Z,3.87
2018-07-23T22:32:55.698Z,4.17
2018-07-23T22:35:24.034Z,3.80
2018-07-23T22:37:52.701Z,3.58
2018-07-23T22:40:21.688Z,3.62
2018-07-23T22:42:50.367Z,3.15
2018-07-23T22:45:19.010Z,3.05
2018-07-23T22:47:47.704Z,3.20
2018-07-23T22:50:16.405Z,3.27
2018-07-23T22:52:45.103Z,3.37
2018-07-23T22:55:13.713Z,3.08
2018-07-23T22:57:42.430Z,2.95
2018-07-23T23:00:11.219Z,3.40
2018-07-23T23:02:39.918Z,3.22
2018-07-23T23:05:09.028Z,3.15
2018-07-23T23:07:37.789Z,3.95
2018-07-23T23:10:06.515Z,3.10
2018-07-23T23:12:35.202Z,3.27
2018-07-23T23:15:03.877Z,3.45
2018-07-23T23:17:32.549Z,3.60
2018-07-23T23:20:02.472Z,3.05
2018-07-23T23:22:31.164Z,3.12
2018-07-23T23:24:59.805Z,3.45
2018-07-23T23:27:28.523Z,3.20
2018-07-23T23:29:57.299Z,3.12
2018-07-23T23:32:25.993Z,3.15
2018-07-23T23:34:54.704Z,3.15
2018-07-23T23:37:23.311Z,3.42
2018-07-23T23:39:51.964Z,2.98
2018-07-23T23:42:20.609Z,3.30
2018-07-23T23:44:49.256Z,3.72
2018-07-23T23:47:17.931Z,3.00
2018-07-23T23:49:46.567Z,3.30
2018-07-23T23:52:15.222Z,3.17
2018-07-23T23:54:43.890Z,3.42
2018-07-23T23:57:12.549Z,3.02
2018-07-23T23:59:41.213Z,3.08
